Terminal Aerodrome Forecast
Issued by NWS

Home | Current Version | Previous Version | Text Only | Print | Product List | Glossary On
Versions: 1 2 3 4 5 6 7 8 9 10 11 12 13 14 15 16
000
FTUS44 KBMX 251138
TAFTCL
TAF
KTCL 251138Z 2512/2612 13009KT P6SM VCSH FEW020 BKN060
      TEMPO 2512/2514 BKN020
     FM251400 15006KT 5SM SHRA VCTS SCT020 BKN040CB
     FM252200 13007KT P6SM SCT015 BKN050=

USA.gov is the U.S. government's official web portal to all federal, state and local government web resources and services.